Time;durP1;ratioP1;P1;durP2;ratioP2;P2;SDS_P1;SDS_P2;PMS_P1;PMS_P2;Temp;Humidity;BMP_temperature;BMP_pressure;BME280_temperature;BME280_humidity;BME280_pressure;Samples;Min_cycle;Max_cycle;Signal;HPM_P1;HPM_P2
2023/10/22 00:00:38;;;;;;;67.30;19.50;;;;;;;11.99;100.00;99830.27;106231;1259;97899;-80
2023/10/22 00:03:44;;;;;;;80.10;18.30;;;;;;;11.98;100.00;99828.70;106057;1256;97166;-79
2023/10/22 00:06:29;;;;;;;76.80;17.80;;;;;;;11.95;100.00;99830.86;106670;1254;100152;-81
2023/10/22 00:09:15;;;;;;;48.80;18.00;;;;;;;11.95;100.00;99837.23;106831;1257;99367;-80
2023/10/22 00:12:01;;;;;;;46.90;18.80;;;;;;;11.94;100.00;99833.31;106787;1259;98426;-81
2023/10/22 00:14:46;;;;;;;55.30;19.00;;;;;;;11.94;100.00;99830.74;106665;1254;96565;-81
2023/10/22 00:17:33;;;;;;;64.90;19.40;;;;;;;11.92;100.00;99828.27;106711;1254;96728;-81
2023/10/22 00:20:19;;;;;;;33.30;20.20;;;;;;;11.88;100.00;99829.66;106944;1254;100025;-81
2023/10/22 00:23:05;;;;;;;36.20;19.70;;;;;;;11.86;100.00;99831.45;106765;1257;100593;-80
2023/10/22 00:25:50;;;;;;;30.80;19.40;;;;;;;11.85;100.00;99829.48;106790;1257;108358;-80
2023/10/22 00:28:36;;;;;;;57.20;19.00;;;;;;;11.83;100.00;99825.60;106846;1254;96606;-80
2023/10/22 00:31:21;;;;;;;49.90;18.80;;;;;;;11.81;100.00;99819.83;106738;1257;97048;-80
2023/10/22 00:34:07;;;;;;;79.90;18.80;;;;;;;11.78;100.00;99819.52;106238;1257;100043;-80
2023/10/22 00:36:53;;;;;;;80.30;18.40;;;;;;;11.76;100.00;99816.95;106106;1255;100324;-79
2023/10/22 00:39:38;;;;;;;57.00;18.40;;;;;;;11.72;100.00;99809.80;106074;1254;99061;-81
2023/10/22 00:42:24;;;;;;;66.40;17.40;;;;;;;11.70;100.00;99809.06;106642;1254;96694;-80
2023/10/22 00:45:10;;;;;;;73.70;18.30;;;;;;;11.68;100.00;99812.95;106863;1259;97404;-80
2023/10/22 00:47:55;;;;;;;63.00;19.00;;;;;;;11.66;100.00;99805.10;106251;1256;101681;-79
2023/10/22 00:50:41;;;;;;;43.10;18.60;;;;;;;11.63;100.00;99800.52;106416;1254;101025;-80
2023/10/22 00:53:29;;;;;;;46.10;19.00;;;;;;;11.59;100.00;99794.22;106195;1253;107635;-79
2023/10/22 00:56:16;;;;;;;40.00;20.50;;;;;;;11.53;100.00;99789.66;105999;1257;96612;-79
2023/10/22 00:59:02;;;;;;;33.80;21.30;;;;;;;11.47;100.00;99793.19;106660;1256;98255;-80
2023/10/22 01:01:48;;;;;;;36.30;21.40;;;;;;;11.47;100.00;99794.23;106183;1257;99972;-79
2023/10/22 01:04:34;;;;;;;30.50;21.70;;;;;;;11.46;100.00;99786.27;106511;1256;99162;-80
2023/10/22 01:07:19;;;;;;;32.10;22.20;;;;;;;11.43;100.00;99782.28;106246;1256;97704;-80
2023/10/22 01:10:05;;;;;;;31.10;21.50;;;;;;;11.39;100.00;99781.39;106125;1259;96589;-80
2023/10/22 01:12:51;;;;;;;31.40;22.40;;;;;;;11.35;100.00;99777.73;106622;1253;95899;-81
2023/10/22 01:15:36;;;;;;;30.70;22.80;;;;;;;11.33;100.00;99775.79;106672;1254;99976;-80
2023/10/22 01:18:24;;;;;;;32.60;22.10;;;;;;;11.31;100.00;99774.48;106149;1257;99066;-80
2023/10/22 01:21:09;;;;;;;30.90;21.40;;;;;;;11.27;100.00;99771.52;106391;1253;97757;-79
2023/10/22 01:23:56;;;;;;;28.20;22.20;;;;;;;11.21;100.00;99768.27;106829;1253;96521;-80
2023/10/22 01:26:43;;;;;;;32.90;22.10;;;;;;;11.14;100.00;99765.38;106790;1253;96530;-80
2023/10/22 01:29:28;;;;;;;26.90;21.10;;;;;;;11.08;100.00;99761.97;106644;1253;101415;-81
2023/10/22 01:32:14;;;;;;;29.10;21.60;;;;;;;11.03;100.00;99759.23;106799;1257;99732;-81
2023/10/22 01:35:00;;;;;;;28.50;22.60;;;;;;;11.02;100.00;99758.48;106604;1253;99009;-80
2023/10/22 01:37:46;;;;;;;33.20;23.10;;;;;;;11.01;100.00;99752.02;106111;1256;97508;-79
2023/10/22 01:40:31;;;;;;;33.90;24.80;;;;;;;10.99;100.00;99751.36;106132;1256;96675;-79
2023/10/22 01:43:17;;;;;;;30.90;23.80;;;;;;;10.96;100.00;99747.58;106170;1257;100926;-79
2023/10/22 01:46:03;;;;;;;29.10;23.00;;;;;;;10.94;100.00;99744.99;106185;1257;99151;-79
2023/10/22 01:48:48;;;;;;;32.00;24.00;;;;;;;10.90;100.00;99742.60;106368;1256;99472;-79
2023/10/22 01:51:34;;;;;;;36.30;24.20;;;;;;;10.88;100.00;99741.16;106224;1257;96579;-80
2023/10/22 01:54:20;;;;;;;30.10;22.10;;;;;;;10.85;100.00;99741.55;106800;1259;96536;-78
2023/10/22 01:57:06;;;;;;;31.00;22.40;;;;;;;10.82;100.00;99742.44;105995;1258;100072;-81
2023/10/22 01:59:51;;;;;;;33.40;23.20;;;;;;;10.81;100.00;99742.98;106055;1259;100212;-80
2023/10/22 02:02:39;;;;;;;34.60;24.30;;;;;;;10.81;100.00;99740.92;106070;1254;97832;-80
2023/10/22 02:05:24;;;;;;;32.80;23.40;;;;;;;10.82;100.00;99744.63;106284;1257;96499;-78
2023/10/22 02:08:10;;;;;;;33.70;23.50;;;;;;;10.82;100.00;99746.73;106236;1257;96659;-80
2023/10/22 02:10:56;;;;;;;32.60;23.40;;;;;;;10.83;100.00;99750.73;106639;1258;100056;-80
2023/10/22 02:13:41;;;;;;;33.00;23.90;;;;;;;10.83;100.00;99753.61;106582;1253;99099;-80
2023/10/22 02:16:26;;;;;;;33.10;23.50;;;;;;;10.82;100.00;99747.16;106162;1256;97804;-80
2023/10/22 02:19:12;;;;;;;32.50;23.50;;;;;;;10.82;100.00;99742.81;106176;1258;97090;-81
2023/10/22 02:21:58;;;;;;;32.90;23.20;;;;;;;10.81;100.00;99739.65;106233;1259;96516;-80
2023/10/22 02:24:44;;;;;;;34.80;23.50;;;;;;;10.81;100.00;99739.95;106865;1253;101358;-80
2023/10/22 02:27:29;;;;;;;43.00;25.90;;;;;;;10.80;100.00;99743.23;106847;1253;99090;-80
2023/10/22 02:30:15;;;;;;;36.20;23.80;;;;;;;10.80;100.00;99748.80;106793;1253;107564;-81
2023/10/22 02:33:00;;;;;;;39.70;25.90;;;;;;;10.81;100.00;99750.94;106751;1257;96538;-80
2023/10/22 02:35:46;;;;;;;34.80;24.20;;;;;;;10.81;100.00;99750.94;106849;1258;96584;-81
2023/10/22 02:38:32;;;;;;;36.20;23.90;;;;;;;10.83;100.00;99750.02;106773;1256;100061;-80
2023/10/22 02:41:18;;;;;;;34.00;23.60;;;;;;;10.86;100.00;99751.59;106755;1253;99306;-79
2023/10/22 02:44:04;;;;;;;40.70;25.70;;;;;;;10.90;100.00;99756.25;106717;1254;98999;-80
2023/10/22 02:46:50;;;;;;;47.70;28.20;;;;;;;10.95;100.00;99764.47;106570;1254;96685;-80
2023/10/22 02:49:35;;;;;;;38.90;24.70;;;;;;;10.98;100.00;99755.61;107213;1256;97182;-81
2023/10/22 02:52:21;;;;;;;35.90;24.70;;;;;;;11.01;100.00;99744.09;106608;1253;101840;-81
2023/10/22 02:55:06;;;;;;;38.90;24.80;;;;;;;11.04;100.00;99737.08;106781;1257;100051;-80
2023/10/22 02:57:52;;;;;;;40.40;25.30;;;;;;;11.07;100.00;99733.98;106822;1256;97806;-81
2023/10/22 03:00:38;;;;;;;44.10;25.80;;;;;;;11.09;100.00;99730.34;106743;1253;97864;-80
2023/10/22 03:03:23;;;;;;;38.80;23.80;;;;;;;11.09;100.00;99729.77;106597;1256;96412;-80
2023/10/22 03:06:12;;;;;;;37.60;24.50;;;;;;;11.09;100.00;99731.05;106658;1253;100208;-81
2023/10/22 03:08:57;;;;;;;37.20;25.40;;;;;;;11.10;100.00;99736.81;108555;1253;99134;-81
2023/10/22 03:11:42;;;;;;;41.00;25.30;;;;;;;11.13;100.00;99744.06;106851;1258;97862;-80
2023/10/22 03:14:28;;;;;;;43.50;25.60;;;;;;;11.17;100.00;99753.36;106637;1260;97110;-80
2023/10/22 03:17:13;;;;;;;41.20;27.10;;;;;;;11.18;100.00;99752.09;106781;1254;96533;-81
2023/10/22 03:20:00;;;;;;;39.40;27.00;;;;;;;11.20;100.00;99751.13;106804;1257;100848;-80
2023/10/22 03:22:46;;;;;;;41.40;25.60;;;;;;;11.21;100.00;99751.46;106703;1253;100795;-80
2023/10/22 03:25:34;;;;;;;40.60;25.40;;;;;;;11.22;100.00;99748.57;106787;1256;97719;-80
2023/10/22 03:28:19;;;;;;;35.80;23.70;;;;;;;11.22;100.00;99752.33;106828;1256;96594;-81
2023/10/22 03:31:05;;;;;;;35.00;25.00;;;;;;;11.23;100.00;99757.52;107104;1253;97109;-81
2023/10/22 03:33:50;;;;;;;37.80;25.00;;;;;;;11.23;100.00;99760.70;106971;1253;100165;-81
2023/10/22 03:36:36;;;;;;;36.40;22.70;;;;;;;11.22;100.00;99760.66;106918;1253;100284;-81
2023/10/22 03:39:21;;;;;;;30.30;20.60;;;;;;;11.22;100.00;99758.02;107007;1257;97865;-81
2023/10/22 03:42:08;;;;;;;28.90;20.10;;;;;;;11.20;100.00;99752.20;106993;1255;96595;-82
2023/10/22 03:44:54;;;;;;;26.80;18.40;;;;;;;11.17;100.00;99744.71;107052;1252;96724;-82
2023/10/22 03:47:39;;;;;;;25.40;19.90;;;;;;;11.15;100.00;99744.55;107049;1256;99985;-81
2023/10/22 03:50:27;;;;;;;23.70;18.00;;;;;;;11.15;100.00;99745.55;107205;1257;99217;-81
2023/10/22 03:53:13;;;;;;;23.40;17.60;;;;;;;11.13;100.00;99739.89;106945;1253;97668;-81
2023/10/22 03:55:58;;;;;;;22.80;17.00;;;;;;;11.13;100.00;99739.98;106800;1253;96695;-80
2023/10/22 03:58:44;;;;;;;22.30;17.60;;;;;;;11.13;100.00;99740.35;106684;1253;96778;-79
2023/10/22 04:01:29;;;;;;;22.60;17.70;;;;;;;11.14;100.00;99744.14;106645;1253;100735;-81
2023/10/22 04:04:15;;;;;;;22.40;17.20;;;;;;;11.16;100.00;99746.19;106818;1256;99068;-80
2023/10/22 04:07:03;;;;;;;25.00;17.70;;;;;;;11.18;100.00;99742.31;106608;1256;98999;-80
2023/10/22 04:09:48;;;;;;;25.30;18.90;;;;;;;11.20;100.00;99743.21;106224;1257;97911;-80
2023/10/22 04:12:34;;;;;;;22.20;17.40;;;;;;;11.22;100.00;99734.05;106786;1253;97056;-80
2023/10/22 04:15:20;;;;;;;21.40;17.00;;;;;;;11.21;100.00;99729.73;106885;1253;99971;-79
2023/10/22 04:18:05;;;;;;;21.30;15.90;;;;;;;11.20;100.00;99724.66;106581;1256;100134;-80
2023/10/22 04:20:51;;;;;;;19.30;15.60;;;;;;;11.20;100.00;99717.02;106612;1259;99406;-80
2023/10/22 04:23:36;;;;;;;21.00;15.30;;;;;;;11.18;100.00;99710.89;106743;1253;96549;-80
2023/10/22 04:26:22;;;;;;;21.30;17.00;;;;;;;11.17;100.00;99708.30;106841;1253;97174;-80
2023/10/22 04:29:07;;;;;;;21.80;15.80;;;;;;;11.15;100.00;99698.94;107144;1254;100797;-81
2023/10/22 04:31:53;;;;;;;19.00;15.40;;;;;;;11.14;100.00;99701.05;106853;1256;99842;-81
2023/10/22 04:34:39;;;;;;;20.50;14.90;;;;;;;11.13;100.00;99691.69;107100;1253;98464;-81
2023/10/22 04:37:27;;;;;;;18.50;14.60;;;;;;;11.12;100.00;99683.12;106960;1256;96567;-81
2023/10/22 04:40:13;;;;;;;16.70;14.30;;;;;;;11.11;100.00;99677.94;106791;1253;96623;-80
2023/10/22 04:42:59;;;;;;;17.60;14.60;;;;;;;11.10;100.00;99672.05;106794;1253;100512;-79
2023/10/22 04:45:47;;;;;;;16.00;13.70;;;;;;;11.09;100.00;99668.95;106565;1257;100378;-80
2023/10/22 04:48:33;;;;;;;16.90;13.40;;;;;;;11.08;100.00;99663.89;106723;1253;99053;-80
2023/10/22 04:51:19;;;;;;;16.80;13.70;;;;;;;11.07;100.00;99661.98;106271;1262;95901;-80
2023/10/22 04:54:04;;;;;;;15.30;13.20;;;;;;;11.07;100.00;99662.20;106912;1253;96446;-81
2023/10/22 04:56:50;;;;;;;14.50;12.00;;;;;;;11.09;100.00;99664.09;106839;1253;100034;-79
2023/10/22 04:59:35;;;;;;;15.30;12.90;;;;;;;11.11;100.00;99665.94;106556;1253;99099;-80
2023/10/22 05:02:21;;;;;;;14.50;11.90;;;;;;;11.13;100.00;99669.13;106667;1257;97795;-80
2023/10/22 05:05:07;;;;;;;14.60;12.00;;;;;;;11.17;100.00;99672.05;106830;1253;97848;-81
2023/10/22 05:07:52;;;;;;;14.50;10.70;;;;;;;11.19;100.00;99665.48;107021;1253;96576;-81
2023/10/22 05:10:41;;;;;;;12.80;10.60;;;;;;;11.21;100.00;99663.04;106881;1253;101153;-81
2023/10/22 05:13:26;;;;;;;11.60;10.30;;;;;;;11.23;100.00;99658.08;106839;1253;99156;-82
2023/10/22 05:16:13;;;;;;;11.60;10.40;;;;;;;11.25;100.00;99654.56;106943;1258;97757;-80
2023/10/22 05:18:58;;;;;;;12.50;10.20;;;;;;;11.27;100.00;99651.42;106929;1253;96619;-81
2023/10/22 05:21:44;;;;;;;11.60;9.90;;;;;;;11.30;100.00;99650.21;106884;1253;98850;-82
2023/10/22 05:24:30;;;;;;;11.40;10.20;;;;;;;11.31;100.00;99655.52;106742;1253;103158;-80
2023/10/22 05:27:17;;;;;;;13.00;10.00;;;;;;;11.32;100.00;99659.10;106704;1253;99150;-80
2023/10/22 05:30:03;;;;;;;12.40;9.60;;;;;;;11.34;100.00;99655.88;107038;1254;99093;-80
2023/10/22 05:32:49;;;;;;;10.40;9.30;;;;;;;11.35;100.00;99657.60;106700;1253;96532;-79
2023/10/22 05:35:35;;;;;;;10.90;8.70;;;;;;;11.37;100.00;99657.14;105929;1253;96536;-80
2023/10/22 05:38:20;;;;;;;10.70;9.00;;;;;;;11.38;100.00;99647.03;106710;1254;100104;-80
2023/10/22 05:41:06;;;;;;;8.70;7.30;;;;;;;11.38;100.00;99646.12;106732;1257;99085;-80
2023/10/22 05:43:56;;;;;;;12.50;8.80;;;;;;;11.39;100.00;99642.29;106544;1254;98485;-81
2023/10/22 05:46:42;;;;;;;10.70;8.90;;;;;;;11.40;100.00;99640.46;106992;1253;96511;-82
2023/10/22 05:49:27;;;;;;;8.90;8.00;;;;;;;11.41;100.00;99636.58;106993;1253;97111;-81
2023/10/22 05:52:13;;;;;;;9.10;7.80;;;;;;;11.43;100.00;99633.16;106736;1259;102286;-79
2023/10/22 05:54:59;;;;;;;9.70;8.00;;;;;;;11.44;100.00;99630.79;106498;1255;99831;-81
2023/10/22 05:57:45;;;;;;;9.70;8.70;;;;;;;11.45;100.00;99630.08;106822;1253;98342;-81
2023/10/22 06:00:30;;;;;;;8.10;7.30;;;;;;;11.47;100.00;99631.46;106835;1258;96601;-81
2023/10/22 06:03:16;;;;;;;9.80;7.90;;;;;;;11.49;100.00;99627.94;106879;1257;96673;-81
2023/10/22 06:06:02;;;;;;;8.20;7.20;;;;;;;11.51;100.00;99630.70;107130;1256;100010;-80
2023/10/22 06:08:48;;;;;;;8.80;7.90;;;;;;;11.54;100.00;99630.52;106893;1253;108955;-80
2023/10/22 06:11:34;;;;;;;7.90;7.00;;;;;;;11.55;100.00;99631.00;106923;1253;98978;-81
2023/10/22 06:14:20;;;;;;;8.60;7.40;;;;;;;11.57;100.00;99626.98;107125;1256;96611;-80
2023/10/22 06:17:06;;;;;;;8.10;7.20;;;;;;;11.59;100.00;99626.55;106965;1253;96489;-81
2023/10/22 06:19:51;;;;;;;8.50;7.40;;;;;;;11.61;100.00;99621.65;106961;1256;99976;-81
2023/10/22 06:22:37;;;;;;;8.70;7.40;;;;;;;11.63;100.00;99621.98;106847;1257;99077;-81
2023/10/22 06:25:23;;;;;;;8.50;6.80;;;;;;;11.65;100.00;99623.67;106892;1258;97723;-81
2023/10/22 06:28:09;;;;;;;7.60;6.80;;;;;;;11.67;100.00;99620.23;106907;1258;97881;-81
2023/10/22 06:31:07;;;;;;;7.80;6.40;;;;;;;11.69;100.00;99619.10;107016;1256;97415;-80
2023/10/22 06:33:52;;;;;;;6.90;6.00;;;;;;;11.70;100.00;99611.20;107054;1256;100768;-81
2023/10/22 06:36:38;;;;;;;7.80;6.80;;;;;;;11.72;100.00;99613.42;107085;1253;99110;-81
2023/10/22 06:39:23;;;;;;;11.30;7.00;;;;;;;11.74;100.00;99609.77;106941;1253;97761;-81
2023/10/22 06:42:10;;;;;;;9.00;6.80;;;;;;;11.76;100.00;99606.66;106743;1253;96680;-80
2023/10/22 06:44:55;;;;;;;7.00;6.30;;;;;;;11.77;100.00;99599.73;106785;1257;97068;-81
2023/10/22 06:47:41;;;;;;;9.70;7.00;;;;;;;11.78;100.00;99595.88;106711;1258;101744;-79
2023/10/22 06:50:26;;;;;;;7.40;6.30;;;;;;;11.78;100.00;99590.80;106686;1256;100468;-80
2023/10/22 06:53:12;;;;;;;8.60;6.30;;;;;;;11.78;100.00;99585.08;106161;1253;97876;-79
2023/10/22 06:55:58;;;;;;;8.30;6.30;;;;;;;11.79;100.00;99580.30;105933;1254;96783;-82
2023/10/22 06:58:47;;;;;;;7.70;6.90;;;;;;;11.80;100.00;99573.48;106759;1256;98189;-82
2023/10/22 07:01:32;;;;;;;8.50;6.20;;;;;;;11.80;100.00;99570.92;106975;1253;101795;-81
2023/10/22 07:04:18;;;;;;;9.10;6.70;;;;;;;11.80;100.00;99564.15;107042;1257;99089;-81
2023/10/22 07:07:03;;;;;;;7.60;6.60;;;;;;;11.82;100.00;99563.02;106937;1258;97737;-79
2023/10/22 07:09:50;;;;;;;7.70;6.10;;;;;;;11.83;100.00;99556.73;106834;1256;96634;-81
2023/10/22 07:12:35;;;;;;;7.10;6.40;;;;;;;11.84;100.00;99558.59;107835;1253;96729;-81
2023/10/22 07:15:21;;;;;;;7.40;6.50;;;;;;;11.85;100.00;99551.48;107037;1253;99996;-81
2023/10/22 07:18:06;;;;;;;9.50;7.20;;;;;;;11.87;100.00;99549.23;107098;1256;99068;-81
2023/10/22 07:20:52;;;;;;;8.20;6.80;;;;;;;11.87;100.00;99543.71;107051;1253;97746;-81
2023/10/22 07:23:37;;;;;;;7.50;6.60;;;;;;;11.88;100.00;99541.30;106882;1256;96614;-81
2023/10/22 07:26:23;;;;;;;7.50;6.40;;;;;;;11.89;100.00;99537.66;107066;1254;97087;-81
2023/10/22 07:29:09;;;;;;;10.30;6.60;;;;;;;11.89;100.00;99531.70;107007;1257;101016;-80
2023/10/22 07:31:54;;;;;;;7.40;6.60;;;;;;;11.89;100.00;99527.09;106453;1256;99166;-78
2023/10/22 07:34:41;;;;;;;7.30;6.60;;;;;;;11.90;100.00;99523.16;106865;1253;97779;-89
2023/10/22 07:37:28;;;;;;;7.20;6.50;;;;;;;11.91;100.00;99518.19;106796;1253;96559;-91
2023/10/22 07:40:15;;;;;;;8.40;6.10;;;;;;;11.92;100.00;99516.87;106447;1257;97141;-85
2023/10/22 07:43:01;;;;;;;7.50;6.10;;;;;;;11.93;100.00;99516.52;106023;1262;101242;-83
2023/10/22 07:45:47;;;;;;;7.60;6.80;;;;;;;11.94;100.00;99514.69;105970;1256;99360;-82
2023/10/22 07:48:33;;;;;;;7.80;6.40;;;;;;;11.96;100.00;99516.61;106137;1254;98231;-84
2023/10/22 07:51:21;;;;;;;6.80;6.10;;;;;;;11.97;100.00;99513.55;105959;1265;96684;-86
2023/10/22 07:54:07;;;;;;;6.00;5.40;;;;;;;11.98;100.00;99508.05;106239;1254;96624;-82
2023/10/22 07:56:53;;;;;;;7.00;6.30;;;;;;;11.99;100.00;99501.95;106418;1259;101353;-83
2023/10/22 07:59:39;;;;;;;6.10;5.40;;;;;;;12.01;100.00;99502.56;106342;1256;100313;-83
2023/10/22 08:02:25;;;;;;;6.30;5.60;;;;;;;12.03;100.00;99505.23;106092;1261;98940;-78
2023/10/22 08:05:10;;;;;;;6.50;5.70;;;;;;;12.03;100.00;99503.04;105458;1253;96525;-76
2023/10/22 08:07:56;;;;;;;5.90;5.30;;;;;;;12.03;100.00;99498.83;105724;1257;97151;-78
2023/10/22 08:13:55;;;;;;;7.70;5.60;;;;;;;12.03;100.00;99490.83;107530;1259;100445;-87
2023/10/22 08:16:40;;;;;;;6.80;5.80;;;;;;;12.05;100.00;99489.69;106382;1261;98911;-85
2023/10/22 08:19:26;;;;;;;6.70;5.70;;;;;;;12.07;100.00;99487.60;106195;1267;96612;-77
2023/10/22 08:22:12;;;;;;;6.00;5.40;;;;;;;12.09;100.00;99487.28;105341;1263;96715;-76
2023/10/22 08:24:57;;;;;;;5.90;5.30;;;;;;;12.10;100.00;99486.44;106202;1259;100747;-82
2023/10/22 08:27:43;;;;;;;6.40;5.20;;;;;;;12.10;100.00;99485.70;105977;1264;100331;-84
2023/10/22 08:30:29;;;;;;;5.50;5.00;;;;;;;12.11;100.00;99488.05;105891;1259;97826;-87
2023/10/22 08:33:15;;;;;;;5.60;5.10;;;;;;;12.12;100.00;99491.50;107077;1261;95861;-85
2023/10/22 08:36:06;;;;;;;6.60;5.30;;;;;;;12.12;100.00;99488.62;106018;1261;97080;-87
2023/10/22 08:38:53;;;;;;;6.10;5.20;;;;;;;12.13;100.00;99491.16;106230;1260;100881;-86
2023/10/22 08:41:56;;;;;;;6.00;5.30;;;;;;;12.13;100.00;99490.05;105880;1261;100087;-88
2023/10/22 08:44:46;;;;;;;6.00;5.40;;;;;;;12.15;100.00;99490.61;105753;1261;97776;-88
2023/10/22 08:47:34;;;;;;;6.50;5.50;;;;;;;12.19;100.00;99490.30;106050;1260;96586;-81
2023/10/22 08:50:20;;;;;;;6.30;5.20;;;;;;;12.21;100.00;99488.84;106135;1260;96716;-82
2023/10/22 08:53:06;;;;;;;6.10;4.90;;;;;;;12.22;100.00;99486.96;106150;1263;100003;-82
2023/10/22 08:55:53;;;;;;;7.10;5.30;;;;;;;12.23;100.00;99487.90;106050;1260;99101;-82
2023/10/22 08:58:38;;;;;;;6.10;5.50;;;;;;;12.23;100.00;99490.38;106104;1263;99037;-83
2023/10/22 09:01:26;;;;;;;6.10;5.20;;;;;;;12.24;100.00;99487.86;106372;1264;96828;-80
2023/10/22 09:04:11;;;;;;;6.30;5.50;;;;;;;12.26;100.00;99488.81;106223;1260;96437;-80
2023/10/22 09:06:57;;;;;;;6.00;5.30;;;;;;;12.27;100.00;99484.38;106186;1264;100405;-81
2023/10/22 09:09:43;;;;;;;5.90;5.30;;;;;;;12.28;100.00;99479.75;106024;1261;99212;-79
2023/10/22 09:12:28;;;;;;;5.70;5.00;;;;;;;12.28;100.00;99479.63;106145;1264;98800;-81
2023/10/22 09:15:14;;;;;;;5.30;4.70;;;;;;;12.28;100.00;99477.11;106090;1264;96985;-83
2023/10/22 09:18:01;;;;;;;8.10;5.60;;;;;;;12.27;100.00;99470.46;106150;1261;97126;-80
2023/10/22 09:20:48;;;;;;;6.30;5.10;;;;;;;12.26;100.00;99466.96;108113;1260;100027;-82
2023/10/22 09:23:34;;;;;;;5.70;5.10;;;;;;;12.27;100.00;99467.30;106039;1264;99074;-79
2023/10/22 09:26:20;;;;;;;8.10;5.40;;;;;;;12.26;100.00;99463.99;105677;1260;97740;-80
2023/10/22 09:29:05;;;;;;;6.10;4.20;;;;;;;12.27;100.00;99459.73;105569;1260;96697;-79
2023/10/22 09:31:54;;;;;;;5.70;4.70;;;;;;;12.27;100.00;99463.86;105498;1260;96690;-80
2023/10/22 09:34:39;;;;;;;5.30;4.70;;;;;;;12.27;100.00;99459.85;105579;1261;100116;-82
2023/10/22 09:37:25;;;;;;;7.50;4.80;;;;;;;12.29;100.00;99452.60;106094;1264;99235;-80
2023/10/22 09:40:21;;;;;;;6.60;4.90;;;;;;;12.30;100.00;99447.96;106112;1260;98961;-80
2023/10/22 09:43:08;;;;;;;6.00;5.30;;;;;;;12.31;100.00;99444.77;105891;1260;96846;-81
2023/10/22 09:45:54;;;;;;;5.80;5.20;;;;;;;12.33;100.00;99442.77;106324;1260;96553;-81
2023/10/22 09:48:42;;;;;;;6.10;5.00;;;;;;;12.34;100.00;99432.33;105570;1267;100076;-80
2023/10/22 09:51:31;;;;;;;5.80;5.10;;;;;;;12.35;100.00;99426.62;105580;1260;99104;-82
2023/10/22 09:54:21;;;;;;;7.30;4.90;;;;;;;12.36;100.00;99418.95;105830;1261;99056;-83
2023/10/22 09:57:15;;;;;;;5.70;5.20;;;;;;;12.37;100.00;99417.21;105762;1260;96626;-80
2023/10/22 10:00:12;;;;;;;6.00;5.30;;;;;;;12.38;100.00;99414.88;105605;1264;97091;-80
2023/10/22 10:03:00;;;;;;;7.40;5.70;;;;;;;12.42;100.00;99414.80;105649;1260;100421;-79
2023/10/22 10:05:47;;;;;;;8.00;6.30;;;;;;;12.44;100.00;99412.34;105609;1260;99141;-80
2023/10/22 10:08:39;;;;;;;6.70;6.00;;;;;;;12.44;100.00;99405.31;105416;1267;97887;-80
2023/10/22 10:11:25;;;;;;;;;;;;;;;12.43;100.00;99402.17;105476;1261;96612;-81
2023/10/22 10:14:30;;;;;;;5.90;5.20;;;;;;;12.41;100.00;99398.95;106133;1260;96661;-82
2023/10/22 10:17:17;;;;;;;6.40;5.70;;;;;;;12.40;100.00;99396.85;107013;1261;101215;-81
2023/10/22 10:20:24;;;;;;;5.00;4.50;;;;;;;12.41;100.00;99395.89;106240;1260;99125;-81
2023/10/22 10:23:19;;;;;;;4.60;4.20;;;;;;;12.42;100.00;99398.27;105597;1267;97770;-81
2023/10/22 10:26:28;;;;;;;6.80;4.60;;;;;;;12.41;100.00;99397.29;106003;1261;96645;-79
2023/10/22 10:29:15;;;;;;;5.60;4.80;;;;;;;12.43;100.00;99396.58;106203;1260;97166;-81
2023/10/22 10:32:13;;;;;;;5.50;4.90;;;;;;;12.45;100.00;99399.02;106026;1264;100790;-82
2023/10/22 10:35:01;;;;;;;7.40;4.50;;;;;;;12.48;100.00;99401.79;105519;1260;100476;-80
2023/10/22 10:38:18;;;;;;;5.90;5.30;;;;;;;12.51;100.00;99399.48;105446;1260;98495;-79
2023/10/22 10:41:04;;;;;;;5.60;4.90;;;;;;;12.50;100.00;99397.79;105445;1261;97282;-80
2023/10/22 10:44:09;;;;;;;5.10;4.60;;;;;;;12.48;100.00;99393.89;105628;1264;96510;-79
2023/10/22 10:47:20;;;;;;;5.30;4.80;;;;;;;12.48;100.00;99387.27;106118;1261;100061;-80
2023/10/22 10:50:07;;;;;;;;;;;;;;;12.49;100.00;99385.24;106158;1261;99077;-80
2023/10/22 10:52:57;;;;;;;4.50;4.10;;;;;;;12.49;100.00;99382.69;105399;1260;98503;-81
2023/10/22 10:55:49;;;;;;;6.10;5.00;;;;;;;12.53;100.00;99380.89;105402;1264;96649;-80
2023/10/22 10:58:43;;;;;;;5.30;4.70;;;;;;;12.55;100.00;99383.27;105460;1261;97652;-81
2023/10/22 11:01:29;;;;;;;5.90;5.00;;;;;;;12.55;100.00;99381.27;105500;1264;101880;-79
2023/10/22 11:04:14;;;;;;;6.20;4.90;;;;;;;12.56;100.00;99379.85;105640;1260;100352;-81
2023/10/22 11:07:01;;;;;;;5.30;4.50;;;;;;;12.58;100.00;99379.32;105495;1261;97867;-82
2023/10/22 11:09:47;;;;;;;6.90;5.90;;;;;;;12.58;100.00;99377.71;105539;1263;96687;-80
2023/10/22 11:12:32;;;;;;;5.50;4.30;;;;;;;12.59;100.00;99376.58;105540;1261;97135;-81
2023/10/22 11:15:18;;;;;;;5.20;4.60;;;;;;;12.59;100.00;99375.68;105536;1261;101412;-81
2023/10/22 11:18:06;;;;;;;6.60;5.00;;;;;;;12.59;100.00;99376.00;105399;1261;100196;-80
2023/10/22 11:20:58;;;;;;;6.80;4.90;;;;;;;12.59;100.00;99379.77;105442;1260;97801;-80
2023/10/22 11:23:44;;;;;;;6.90;5.10;;;;;;;12.59;100.00;99377.90;105683;1267;96628;-82
2023/10/22 11:26:30;;;;;;;5.70;4.90;;;;;;;12.60;100.00;99373.27;105507;1261;97153;-80
2023/10/22 11:29:17;;;;;;;5.50;4.90;;;;;;;12.60;100.00;99374.16;105464;1261;100099;-80
2023/10/22 11:32:03;;;;;;;7.20;4.90;;;;;;;12.60;100.00;99372.43;105516;1261;99676;-81
2023/10/22 11:34:54;;;;;;;5.80;4.90;;;;;;;12.59;100.00;99375.58;105445;1264;97736;-81
2023/10/22 11:37:43;;;;;;;5.10;4.60;;;;;;;12.60;100.00;99374.05;105777;1261;97332;-79
2023/10/22 11:40:30;;;;;;;4.80;4.20;;;;;;;12.61;100.00;99373.16;105561;1260;97081;-80
2023/10/22 11:43:17;;;;;;;9.20;4.70;;;;;;;12.61;100.00;99370.70;105461;1265;101558;-79
2023/10/22 11:46:03;;;;;;;5.30;4.30;;;;;;;12.60;100.00;99373.30;105555;1263;99141;-80
2023/10/22 11:48:48;;;;;;;5.60;4.40;;;;;;;12.61;100.00;99373.42;105809;1262;98441;-80
2023/10/22 11:51:44;;;;;;;5.80;4.10;;;;;;;12.61;100.00;99374.29;106319;1260;96668;-82
2023/10/22 11:54:44;;;;;;;5.60;4.00;;;;;;;12.61;100.00;99378.65;106055;1261;97990;-80
2023/10/22 11:57:33;;;;;;;4.90;4.40;;;;;;;12.62;100.00;99378.02;106010;1260;101624;-82
2023/10/22 12:00:19;;;;;;;5.30;4.30;;;;;;;12.62;100.00;99378.14;106043;1265;100292;-80
2023/10/22 12:03:04;;;;;;;6.90;5.10;;;;;;;12.62;100.00;99375.91;106079;1264;99113;-81
2023/10/22 12:05:50;;;;;;;6.20;4.40;;;;;;;12.61;100.00;99378.70;105973;1261;96601;-81
2023/10/22 12:08:36;;;;;;;4.40;3.90;;;;;;;12.60;100.00;99381.69;105931;1260;96730;-80
2023/10/22 12:11:21;;;;;;;4.30;3.90;;;;;;;12.61;100.00;99380.18;105508;1260;100045;-80
2023/10/22 12:14:07;;;;;;;4.40;4.00;;;;;;;12.60;100.00;99382.76;105489;1261;99429;-81
2023/10/22 12:16:53;;;;;;;5.20;4.50;;;;;;;12.60;100.00;99387.36;105501;1279;97792;-79
2023/10/22 12:19:39;;;;;;;6.80;4.70;;;;;;;12.59;100.00;99388.15;105413;1264;97902;-81
2023/10/22 12:22:25;;;;;;;4.00;3.60;;;;;;;12.59;100.00;99385.64;105523;1263;96623;-79
2023/10/22 12:25:11;;;;;;;5.00;4.60;;;;;;;12.59;100.00;99387.45;105475;1260;100044;-78
2023/10/22 12:27:56;;;;;;;6.20;5.20;;;;;;;12.58;100.00;99390.40;105558;1261;99116;-79
2023/10/22 12:30:42;;;;;;;5.80;5.10;;;;;;;12.56;100.00;99388.41;105467;1261;97844;-79
2023/10/22 12:33:28;;;;;;;5.30;4.70;;;;;;;12.54;100.00;99385.75;105879;1260;97064;-80
2023/10/22 12:36:14;;;;;;;7.10;5.80;;;;;;;12.52;100.00;99387.05;105562;1260;96638;-79
2023/10/22 12:39:00;;;;;;;6.10;5.50;;;;;;;12.49;100.00;99385.20;105527;1264;101335;-80
2023/10/22 12:41:46;;;;;;;7.90;5.50;;;;;;;12.47;100.00;99382.92;105502;1260;99292;-79